createdAt,value
2023-03-06T00:01:49.286Z,3.53
2023-03-06T00:04:53.509Z,3.38
2023-03-06T00:07:56.334Z,3.97
2023-03-06T00:10:59.652Z,3.22
2023-03-06T00:14:03.059Z,3.60
2023-03-06T00:17:05.973Z,3.72
2023-03-06T00:20:11.121Z,3.63
2023-03-06T00:23:14.307Z,3.60
2023-03-06T00:26:17.586Z,4.07
2023-03-06T00:29:21.247Z,3.83
2023-03-06T00:32:25.149Z,3.47
2023-03-06T00:35:28.344Z,3.50
2023-03-06T00:38:33.541Z,4.10
2023-03-06T00:41:36.541Z,5.72
2023-03-06T00:44:39.646Z,7.67
2023-03-06T00:47:42.651Z,7.20
2023-03-06T00:50:45.541Z,5.93
2023-03-06T00:53:48.705Z,5.77
2023-03-06T00:56:52.226Z,4.72
2023-03-06T00:59:55.950Z,5.07
2023-03-06T01:02:58.985Z,5.07
2023-03-06T01:06:01.779Z,3.95
2023-03-06T01:09:06.914Z,4.55
2023-03-06T01:12:09.985Z,4.40
2023-03-06T01:15:13.767Z,3.57
2023-03-06T01:18:16.838Z,3.47
2023-03-06T01:21:19.770Z,4.15
2023-03-06T01:24:24.578Z,2.63
2023-03-06T01:27:28.062Z,2.65
2023-03-06T01:30:31.240Z,2.80
2023-03-06T01:33:34.421Z,2.53
2023-03-06T01:36:37.694Z,2.92
2023-03-06T01:39:41.328Z,2.78
2023-03-06T01:42:45.838Z,3.00
2023-03-06T01:45:53.174Z,2.60
2023-03-06T01:49:13.915Z,2.97
2023-03-06T01:52:21.932Z,2.72
2023-03-06T01:55:31.505Z,4.17
2023-03-06T01:58:34.945Z,3.22
2023-03-06T02:01:40.360Z,2.88
2023-03-06T02:04:44.204Z,3.08
2023-03-06T02:07:48.302Z,3.20
2023-03-06T02:11:09.285Z,3.28
2023-03-06T02:14:15.498Z,3.40
2023-03-06T02:17:21.697Z,4.03
2023-03-06T02:20:33.523Z,3.05
2023-03-06T02:23:58.646Z,3.53
2023-03-06T02:27:03.423Z,5.23
2023-03-06T02:30:08.751Z,3.90
2023-03-06T02:33:17.446Z,4.45
2023-03-06T02:36:20.277Z,4.28
2023-03-06T02:39:28.482Z,3.35
2023-03-06T02:42:31.297Z,4.20
2023-03-06T02:45:45.439Z,6.38
2023-03-06T02:48:49.267Z,7.37
2023-03-06T02:51:52.138Z,4.18
2023-03-06T02:54:55.138Z,4.63
2023-03-06T02:57:58.159Z,4.83
2023-03-06T03:01:01.703Z,4.28
2023-03-06T03:04:06.345Z,3.47
2023-03-06T03:07:09.187Z,3.85
2023-03-06T03:10:12.857Z,3.78
2023-03-06T03:13:15.637Z,3.67
2023-03-06T03:16:18.913Z,4.00
2023-03-06T03:19:22.113Z,3.60
2023-03-06T03:22:25.222Z,3.42
2023-03-06T03:25:28.376Z,3.67
2023-03-06T03:28:33.649Z,3.03
2023-03-06T03:31:36.754Z,3.50
2023-03-06T03:34:40.358Z,3.60
2023-03-06T03:37:42.959Z,3.15
2023-03-06T03:40:46.117Z,2.70
2023-03-06T03:43:49.021Z,3.17
2023-03-06T03:46:52.340Z,3.63
2023-03-06T03:49:58.621Z,2.70
2023-03-06T03:53:01.401Z,2.92
2023-03-06T03:56:05.355Z,3.50
2023-03-06T03:59:11.934Z,2.90
2023-03-06T04:02:23.927Z,2.53
2023-03-06T04:05:44.383Z,2.65
2023-03-06T04:08:49.773Z,2.88
2023-03-06T04:11:53.136Z,3.22
2023-03-06T04:14:56.310Z,4.60
2023-03-06T04:17:59.507Z,6.03
2023-03-06T04:21:04.596Z,9.43
2023-03-06T04:24:08.148Z,3.55
2023-03-06T04:27:11.612Z,2.65
2023-03-06T04:30:15.525Z,1.13
2023-03-06T04:33:18.863Z,2.53
2023-03-06T04:36:45.474Z,2.15
2023-03-06T04:39:51.338Z,1.98
2023-03-06T04:42:55.434Z,2.28
2023-03-06T04:45:58.323Z,2.40
2023-03-06T04:49:01.397Z,3.58
2023-03-06T04:52:04.729Z,3.57
2023-03-06T04:55:09.263Z,5.05
2023-03-06T04:58:14.031Z,5.25
2023-03-06T05:01:17.135Z,4.80
2023-03-06T05:04:20.473Z,3.47
2023-03-06T05:07:23.698Z,3.33
2023-03-06T05:10:26.612Z,1.75
2023-03-06T05:13:29.574Z,1.75
2023-03-06T05:16:32.094Z,1.98
2023-03-06T05:19:35.073Z,1.58
2023-03-06T05:22:38.344Z,1.37
2023-03-06T05:25:41.958Z,1.40
2023-03-06T05:28:44.826Z,1.65
2023-03-06T05:31:47.876Z,1.00
2023-03-06T05:34:51.367Z,1.15
2023-03-06T05:37:54.249Z,2.42
2023-03-06T05:40:57.149Z,2.60
2023-03-06T05:43:59.978Z,2.53
2023-03-06T05:47:02.804Z,2.53
2023-03-06T05:50:08.246Z,2.85
2023-03-06T05:53:11.155Z,1.50
2023-03-06T05:56:14.481Z,1.88
2023-03-06T05:59:17.513Z,1.30
2023-03-06T06:02:41.104Z,1.70
2023-03-06T06:05:43.814Z,1.17
2023-03-06T06:08:52.451Z,1.08
2023-03-06T06:11:59.914Z,1.42
2023-03-06T06:15:02.997Z,1.35
2023-03-06T06:18:05.981Z,1.45
2023-03-06T06:21:11.040Z,1.27
2023-03-06T06:24:15.882Z,1.33
2023-03-06T06:27:18.580Z,3.25
2023-03-06T06:30:21.453Z,1.95
2023-03-06T06:33:24.710Z,2.23
2023-03-06T06:36:27.279Z,10.68
2023-03-06T06:39:30.577Z,6.50
2023-03-06T06:42:39.466Z,2.15
2023-03-06T06:45:44.360Z,2.13
2023-03-06T06:48:56.459Z,2.75
2023-03-06T06:51:59.753Z,1.40
2023-03-06T06:55:02.442Z,1.90
2023-03-06T06:58:05.125Z,2.72
2023-03-06T07:01:10.280Z,8.70
2023-03-06T07:04:14.110Z,11.17
2023-03-06T07:07:17.354Z,2.92
2023-03-06T07:10:21.197Z,2.35
2023-03-06T07:13:24.444Z,2.00
2023-03-06T07:16:27.692Z,2.80
2023-03-06T07:19:30.672Z,3.30
2023-03-06T07:22:41.538Z,2.10
2023-03-06T07:25:51.747Z,1.90
2023-03-06T07:28:55.303Z,1.80
2023-03-06T07:31:57.931Z,1.92
2023-03-06T07:35:19.016Z,2.17
2023-03-06T07:38:22.292Z,1.77
2023-03-06T07:41:25.173Z,1.42
2023-03-06T07:44:30.198Z,0.75
2023-03-06T07:47:33.177Z,1.50
2023-03-06T07:50:35.969Z,1.58
2023-03-06T07:53:39.776Z,1.30
2023-03-06T07:56:42.825Z,1.87
2023-03-06T07:59:45.567Z,2.35
2023-03-06T08:02:50.081Z,2.63
2023-03-06T08:05:52.741Z,1.07
2023-03-06T08:08:57.100Z,1.58
2023-03-06T08:11:59.774Z,1.88
2023-03-06T08:15:02.854Z,2.35
2023-03-06T08:18:06.241Z,2.20
2023-03-06T08:21:11.683Z,1.95
2023-03-06T08:24:16.704Z,1.63
2023-03-06T08:27:19.548Z,1.87
2023-03-06T08:30:22.224Z,1.60
2023-03-06T08:33:25.341Z,1.92
2023-03-06T08:36:28.180Z,2.00
2023-03-06T08:39:31.313Z,2.42
2023-03-06T08:42:33.866Z,1.83
2023-03-06T08:45:36.813Z,2.60
2023-03-06T08:48:39.813Z,1.70
2023-03-06T08:51:43.216Z,0.90
2023-03-06T08:54:46.784Z,2.13
2023-03-06T08:57:49.686Z,2.00
2023-03-06T09:00:52.378Z,2.60
2023-03-06T09:03:59.696Z,1.70
2023-03-06T09:07:03.678Z,1.37
2023-03-06T09:10:09.498Z,1.13
2023-03-06T09:13:13.078Z,2.30
2023-03-06T09:16:16.660Z,1.60
2023-03-06T09:19:19.576Z,1.67
2023-03-06T09:22:22.497Z,2.28
2023-03-06T09:25:25.461Z,1.77
2023-03-06T09:28:28.371Z,1.60
2023-03-06T09:31:32.210Z,1.50
2023-03-06T09:34:35.666Z,2.13
2023-03-06T09:37:38.291Z,1.70
2023-03-06T09:40:59.218Z,0.93
2023-03-06T09:44:11.981Z,1.55
2023-03-06T09:47:20.438Z,2.40
2023-03-06T09:50:32.446Z,1.67
2023-03-06T09:54:05.308Z,2.33
2023-03-06T09:57:20.056Z,3.00
2023-03-06T10:00:31.133Z,2.67
2023-03-06T10:04:05.935Z,1.70
2023-03-06T10:07:25.306Z,2.90
2023-03-06T10:10:44.877Z,2.73
2023-03-06T10:13:55.017Z,2.35
2023-03-06T10:16:58.718Z,3.08
2023-03-06T10:20:02.668Z,2.78
2023-03-06T10:23:38.931Z,2.90
2023-03-06T10:26:50.280Z,4.28
2023-03-06T10:30:03.544Z,3.05
